Time;durP1;ratioP1;P1;durP2;ratioP2;P2;SDS_P1;SDS_P2;PMS_P1;PMS_P2;Temp;Humidity;BMP_temperature;BMP_pressure;BME280_temperature;BME280_humidity;BME280_pressure;Samples;Min_cycle;Max_cycle;Signal;HPM_P1;HPM_P2
2022/10/29 00:00:25;;;;;;;;;;;;;;;17.89;79.73;101831.88;1287482;22;648;-91
2022/10/29 00:01:15;;;;;;;;;;;;;;;17.91;79.35;101837.16;1286995;23;634;-91
2022/10/29 00:02:06;;;;;;;;;;;;;;;17.90;79.84;101825.50;1287178;23;616;-90
2022/10/29 00:02:56;;;;;;;;;;;;;;;17.91;79.19;101837.16;1293310;22;628;-90
2022/10/29 00:03:47;;;;;;;;;;;;;;;17.91;79.57;101831.75;1292991;22;588;-89
2022/10/29 00:04:37;;;;;;;;;;;;;;;17.90;80.15;101838.13;1290633;23;676;-89
2022/10/29 00:05:28;;;;;;;;;;;;;;;17.88;80.21;101834.72;1291235;23;624;-90
2022/10/29 00:06:18;;;;;;;;;;;;;;;17.87;79.11;101831.16;1285056;23;672;-89
2022/10/29 00:07:09;;;;;;;;;;;;;;;17.86;80.13;101832.13;1287066;23;620;-89
2022/10/29 00:07:59;;;;;;;;;;;;;;;17.87;79.54;101825.75;1286942;23;703;-89
2022/10/29 00:08:49;;;;;;;;;;;;;;;17.89;79.54;101833.72;1287263;23;648;-89
2022/10/29 00:09:40;;;;;;;;;;;;;;;17.88;79.50;101832.00;1287082;23;620;-89
2022/10/29 00:10:30;;;;;;;;;;;;;;;17.88;79.65;101829.31;1286926;23;633;-87
2022/10/29 00:11:21;;;;;;;;;;;;;;;17.88;79.51;101824.78;1286999;23;625;-88
2022/10/29 00:12:12;;;;;;;;;;;;;;;17.88;79.81;101830.16;1292954;22;612;-89
2022/10/29 00:13:02;;;;;;;;;;;;;;;17.89;78.99;101833.72;1293097;22;608;-88
2022/10/29 00:13:53;;;;;;;;;;;;;;;17.89;79.86;101825.63;1287279;22;811;-90
2022/10/29 00:14:43;;;;;;;;;;;;;;;17.88;79.50;101821.22;1287016;23;684;-89
2022/10/29 00:15:33;;;;;;;;;;;;;;;17.88;79.88;101827.47;1287071;23;613;-86
2022/10/29 00:16:24;;;;;;;;;;;;;;;17.86;79.58;101832.13;1287039;23;617;-86
2022/10/29 00:17:14;;;;;;;;;;;;;;;17.84;79.91;101820.59;1286793;23;656;-87
2022/10/29 00:18:05;;;;;;;;;;;;;;;17.85;79.47;101827.72;1286972;23;637;-86
2022/10/29 00:18:55;;;;;;;;;;;;;;;17.87;79.81;101835.69;1286852;23;543;-85
2022/10/29 00:19:46;;;;;;;;;;;;;;;17.87;79.55;101830.28;1286981;23;668;-86
2022/10/29 00:20:36;;;;;;;;;;;;;;;17.88;79.67;101834.72;1286889;22;663;-87
2022/10/29 00:21:26;;;;;;;;;;;;;;;17.85;79.99;101832.25;1287055;23;668;-87
2022/10/29 00:22:17;;;;;;;;;;;;;;;17.84;79.82;101842.19;1286917;23;601;-86
2022/10/29 00:23:07;;;;;;;;;;;;;;;17.85;79.74;101840.34;1286834;23;639;-87
2022/10/29 00:23:58;;;;;;;;;;;;;;;17.86;79.59;101839.34;1286998;23;655;-88
2022/10/29 00:24:48;;;;;;;;;;;;;;;17.86;79.46;101839.34;1286980;23;664;-87
2022/10/29 00:25:38;;;;;;;;;;;;;;;17.86;79.59;101833.97;1286773;23;660;-87
2022/10/29 00:26:29;;;;;;;;;;;;;;;17.83;80.30;101832.38;1286934;23;616;-87
2022/10/29 00:27:19;;;;;;;;;;;;;;;17.84;80.14;101827.84;1292963;22;644;-86
2022/10/29 00:28:10;;;;;;;;;;;;;;;17.83;79.64;101826.13;1290052;23;669;-86
2022/10/29 00:29:00;;;;;;;;;;;;;;;17.82;79.19;101822.56;1292781;22;652;-86
2022/10/29 00:29:51;;;;;;;;;;;;;;;17.84;79.76;101822.44;1284712;23;649;-86
2022/10/29 00:30:41;;;;;;;;;;;;;;;17.84;79.35;101823.31;1286225;23;625;-86
2022/10/29 00:31:31;;;;;;;;;;;;;;;17.82;80.00;101822.56;1286851;23;604;-85
2022/10/29 00:32:22;;;;;;;;;;;;;;;17.81;79.92;101825.38;1286828;23;656;-86
2022/10/29 00:33:12;;;;;;;;;;;;;;;17.81;79.46;101825.38;1286908;23;633;-86
2022/10/29 00:34:03;;;;;;;;;;;;;;;17.78;79.23;101833.69;1287038;23;628;-86
2022/10/29 00:34:53;;;;;;;;;;;;;;;17.81;79.70;101830.75;1286798;23;601;-86
2022/10/29 00:35:44;;;;;;;;;;;;;;;17.78;79.79;101831.88;1292886;22;640;-86
2022/10/29 00:36:34;;;;;;;;;;;;;;;17.79;79.81;101828.19;1290255;23;676;-86
2022/10/29 00:37:24;;;;;;;;;;;;;;;17.79;79.71;101832.72;1293064;22;644;-86
2022/10/29 00:38:15;;;;;;;;;;;;;;;17.79;79.58;101832.72;1284726;23;661;-86
2022/10/29 00:39:05;;;;;;;;;;;;;;;17.79;79.75;101827.34;1286874;23;664;-85
2022/10/29 00:39:56;;;;;;;;;;;;;;;17.80;79.94;101831.75;1286934;23;612;-85
2022/10/29 00:40:46;;;;;;;;;;;;;;;17.75;79.65;101823.16;1292696;22;782;-85
2022/10/29 00:41:37;;;;;;;;;;;;;;;17.77;79.85;101827.44;1289960;23;656;-84
2022/10/29 00:42:27;;;;;;;;;;;;;;;17.75;79.79;101823.16;1290218;23;1144;-86
2022/10/29 00:43:17;;;;;;;;;;;;;;;17.78;79.81;101825.63;1286832;22;645;-86
2022/10/29 00:44:08;;;;;;;;;;;;;;;17.77;79.77;101822.06;1284592;23;629;-85
2022/10/29 00:44:58;;;;;;;;;;;;;;;17.77;79.82;101818.50;1284321;23;692;-85
2022/10/29 00:45:49;;;;;;;;;;;;;;;17.77;79.44;101826.59;1290391;23;653;-85
2022/10/29 00:46:39;;;;;;;;;;;;;;;17.77;79.75;101818.50;1292829;22;698;-86
2022/10/29 00:47:30;;;;;;;;;;;;;;;17.79;80.36;101811.16;1289637;23;1059;-85
2022/10/29 00:48:20;;;;;;;;;;;;;;;17.78;79.61;101809.44;1293245;22;613;-91
2022/10/29 00:49:10;;;;;;;;;;;;;;;17.76;80.31;101812.25;1292282;22;637;-92
2022/10/29 00:50:01;;;;;;;;;;;;;;;17.77;79.80;101816.66;1285563;23;625;-86
2022/10/29 00:50:51;;;;;;;;;;;;;;;17.78;79.35;101814.84;1288693;23;629;-88
2022/10/29 00:51:42;;;;;;;;;;;;;;;17.78;80.23;101814.84;1292155;23;628;-87
2022/10/29 00:52:32;;;;;;;;;;;;;;;17.78;80.41;101812.13;1292241;22;625;-87
2022/10/29 00:53:23;;;;;;;;;;;;;;;17.77;79.72;101819.38;1292316;22;625;-86
2022/10/29 00:54:13;;;;;;;;;;;;;;;17.77;79.66;101810.41;1291118;23;629;-86
2022/10/29 00:55:03;;;;;;;;;;;;;;;17.77;79.81;101807.72;1291808;23;699;-85
2022/10/29 00:55:54;;;;;;;;;;;;;;;17.77;79.69;101810.41;1292112;23;634;-86
2022/10/29 00:56:44;;;;;;;;;;;;;;;17.78;79.79;101810.28;1291129;23;637;-86
2022/10/29 00:57:35;;;;;;;;;;;;;;;17.77;79.67;101813.13;1291876;23;622;-88
2022/10/29 00:58:25;;;;;;;;;;;;;;;17.79;79.72;101803.06;1291169;23;1908;-89
2022/10/29 00:59:16;;;;;;;;;;;;;;;17.77;80.13;101813.13;1290057;23;616;-89
2022/10/29 01:00:06;;;;;;;;;;;;;;;17.75;80.63;101809.69;1291125;23;676;-88
2022/10/29 01:00:58;;;;;;;;;;;;;;;17.75;80.12;101806.97;1292376;23;617;-88
2022/10/29 01:01:48;;;;;;;;;;;;;;;17.75;79.71;101804.28;1291149;23;715;-88
2022/10/29 01:02:39;;;;;;;;;;;;;;;17.77;80.15;101815.81;1291809;23;620;-88
2022/10/29 01:03:29;;;;;;;;;;;;;;;17.75;80.24;101810.53;1290897;23;660;-88
2022/10/29 01:04:19;;;;;;;;;;;;;;;17.76;79.64;101814.09;1289927;23;631;-88
2022/10/29 01:05:10;;;;;;;;;;;;;;;17.76;80.06;101808.69;1290068;23;620;-88
2022/10/29 01:06:00;;;;;;;;;;;;;;;17.76;79.72;101814.09;1292051;23;668;-88
2022/10/29 01:06:51;;;;;;;;;;;;;;;17.73;79.48;101807.13;1291570;23;661;-87
2022/10/29 01:07:41;;;;;;;;;;;;;;;17.75;80.42;101798.88;1292365;22;593;-87
2022/10/29 01:08:32;;;;;;;;;;;;;;;17.77;79.99;101800.50;1292266;22;636;-87
2022/10/29 01:09:22;;;;;;;;;;;;;;;17.72;79.58;101793.78;1291912;23;1010;-87
2022/10/29 01:10:12;;;;;;;;;;;;;;;17.71;80.10;101792.06;1292297;23;648;-86
2022/10/29 01:11:03;;;;;;;;;;;;;;;17.72;79.55;101793.78;1291059;23;669;-87
2022/10/29 01:11:53;;;;;;;;;;;;;;;17.75;80.07;101798.88;1290476;23;633;-87
2022/10/29 01:12:44;;;;;;;;;;;;;;;17.72;80.29;101794.63;1291432;23;614;-88
2022/10/29 01:13:34;;;;;;;;;;;;;;;17.72;79.63;101793.78;1292378;23;683;-88
2022/10/29 01:14:24;;;;;;;;;;;;;;;17.71;79.90;101792.91;1292289;22;758;-88
2022/10/29 01:15:15;;;;;;;;;;;;;;;17.71;80.08;101792.91;1292232;22;637;-88
2022/10/29 01:16:05;;;;;;;;;;;;;;;17.72;79.56;101801.84;1290957;23;617;-88
2022/10/29 01:16:56;;;;;;;;;;;;;;;17.75;80.11;101798.88;1291936;23;609;-88
2022/10/29 01:17:46;;;;;;;;;;;;;;;17.74;79.46;101797.16;1291319;23;632;-88
2022/10/29 01:18:36;;;;;;;;;;;;;;;17.71;80.15;101792.06;1292878;23;1881;-88
2022/10/29 01:19:27;;;;;;;;;;;;;;;17.72;80.03;101796.47;1294252;23;651;-88
2022/10/29 01:20:17;;;;;;;;;;;;;;;17.71;79.21;101795.59;1292492;22;628;-88
2022/10/29 01:21:08;;;;;;;;;;;;;;;17.73;79.64;101790.97;1293718;22;600;-89
2022/10/29 01:21:58;;;;;;;;;;;;;;;17.74;79.40;101794.47;1293933;22;679;-87
2022/10/29 01:22:49;;;;;;;;;;;;;;;17.73;79.34;101787.41;1292200;23;656;-88
2022/10/29 01:23:39;;;;;;;;;;;;;;;17.73;79.53;101780.16;1291183;23;581;-91
2022/10/29 01:24:29;;;;;;;;;;;;;;;17.75;79.50;101790.81;1291227;23;672;-89
2022/10/29 01:25:20;;;;;;;;;;;;;;;17.72;80.04;101786.53;1290962;23;612;-90
2022/10/29 01:26:10;;;;;;;;;;;;;;;17.72;79.72;101789.25;1292327;23;629;-89
2022/10/29 01:27:01;;;;;;;;;;;;;;;17.69;80.32;101781.38;1292248;22;648;-89
2022/10/29 01:27:51;;;;;;;;;;;;;;;17.70;79.56;101788.50;1292257;22;690;-90
2022/10/29 01:28:42;;;;;;;;;;;;;;;17.69;80.42;101784.94;1292128;22;698;-89
2022/10/29 01:29:32;;;;;;;;;;;;;;;17.72;80.32;101783.00;1291198;23;667;-88
2022/10/29 01:30:22;;;;;;;;;;;;;;;17.68;80.38;101783.22;1292181;23;613;-92
2022/10/29 01:31:13;;;;;;;;;;;;;;;17.65;80.34;101778.06;1291281;23;633;-88
2022/10/29 01:32:03;;;;;;;;;;;;;;;17.64;79.62;101779.06;1291018;23;684;-87
2022/10/29 01:32:54;;;;;;;;;;;;;;;17.67;80.39;101776.13;1291054;23;625;-88
2022/10/29 01:33:44;;;;;;;;;;;;;;;17.68;80.50;101767.06;1292138;23;621;-88
2022/10/29 01:34:35;;;;;;;;;;;;;;;17.67;80.06;101764.47;1291465;23;644;-88
2022/10/29 01:35:25;;;;;;;;;;;;;;;17.66;80.12;101760.06;1291012;23;726;-89
2022/10/29 01:36:16;;;;;;;;;;;;;;;17.68;79.55;101760.81;1292017;23;715;-87
2022/10/29 01:37:06;;;;;;;;;;;;;;;17.65;79.55;101752.94;1290796;23;617;-87
2022/10/29 01:37:56;;;;;;;;;;;;;;;17.63;79.73;101752.19;1290431;23;628;-87
2022/10/29 01:38:47;;;;;;;;;;;;;;;17.64;80.07;101753.94;1290157;23;1868;-87
2022/10/29 01:39:37;;;;;;;;;;;;;;;17.64;79.77;101751.25;1285839;23;648;-88
2022/10/29 01:40:28;;;;;;;;;;;;;;;17.61;80.46;101746.91;1291811;22;656;-87
2022/10/29 01:41:18;;;;;;;;;;;;;;;17.62;80.26;101745.06;1291843;23;672;-88
2022/10/29 01:42:09;;;;;;;;;;;;;;;17.64;79.52;101754.78;1289979;23;637;-87
2022/10/29 01:42:59;;;;;;;;;;;;;;;17.62;79.36;101740.53;1291091;23;632;-87
2022/10/29 01:43:50;;;;;;;;;;;;;;;17.65;79.55;101747.56;1292101;23;636;-88
2022/10/29 01:44:40;;;;;;;;;;;;;;;17.65;79.83;101745.72;1292338;22;611;-88
2022/10/29 01:45:30;;;;;;;;;;;;;;;17.63;79.72;101750.34;1292233;22;660;-87
2022/10/29 01:46:21;;;;;;;;;;;;;;;17.63;80.12;101747.66;1292294;22;604;-86
2022/10/29 01:47:12;;;;;;;;;;;;;;;17.65;79.70;101752.94;1292108;22;1210;-86
2022/10/29 01:48:02;;;;;;;;;;;;;;;17.62;79.42;101755.84;1297942;22;667;-88
2022/10/29 01:48:53;;;;;;;;;;;;;;;17.65;79.42;101753.81;1296277;22;613;-86
2022/10/29 01:49:43;;;;;;;;;;;;;;;17.64;79.59;101760.19;1296876;22;660;-87
2022/10/29 01:50:34;;;;;;;;;;;;;;;17.63;80.00;101761.13;1297508;22;589;-87
2022/10/29 01:51:24;;;;;;;;;;;;;;;17.64;79.33;101756.63;1297555;22;636;-87
2022/10/29 01:52:15;;;;;;;;;;;;;;;17.65;79.55;101751.13;1297624;22;645;-90
2022/10/29 01:53:05;;;;;;;;;;;;;;;17.64;79.29;101754.78;1297216;22;601;-90
2022/10/29 01:53:55;;;;;;;;;;;;;;;17.65;79.35;101761.91;1296752;22;658;-89
2022/10/29 01:54:46;;;;;;;;;;;;;;;17.62;79.85;101756.72;1296873;22;617;-89
2022/10/29 01:55:36;;;;;;;;;;;;;;;17.65;79.06;101758.34;1298087;22;652;-91
2022/10/29 01:56:27;;;;;;;;;;;;;;;17.62;79.79;101759.41;1297814;22;672;-89
2022/10/29 01:57:17;;;;;;;;;;;;;;;17.61;79.40;101757.69;1297901;22;640;-92
2022/10/29 01:58:08;;;;;;;;;;;;;;;17.61;79.33;101760.41;1297086;22;599;-88
2022/10/29 01:58:58;;;;;;;;;;;;;;;17.60;79.59;101768.59;1297582;22;609;-90
2022/10/29 01:59:48;;;;;;;;;;;;;;;17.62;79.98;101766.63;1297746;22;601;-89
2022/10/29 02:00:39;;;;;;;;;;;;;;;17.62;79.70;101767.50;1297367;22;660;-87
2022/10/29 02:01:29;;;;;;;;;;;;;;;17.61;79.04;101765.78;1297244;22;598;-88
2022/10/29 02:02:20;;;;;;;;;;;;;;;17.59;79.99;101766.88;1296988;22;652;-87
2022/10/29 02:03:10;;;;;;;;;;;;;;;17.58;79.62;101762.47;1297226;22;640;-90
2022/10/29 02:04:01;;;;;;;;;;;;;;;17.59;79.46;101767.75;1297747;22;609;-90
2022/10/29 02:04:51;;;;;;;;;;;;;;;17.57;79.67;101767.00;1297656;22;605;-88
2022/10/29 02:05:41;;;;;;;;;;;;;;;17.57;79.41;101761.59;1297662;22;660;-87
2022/10/29 02:06:32;;;;;;;;;;;;;;;17.55;79.69;101763.59;1297446;22;649;-87
2022/10/29 02:07:22;;;;;;;;;;;;;;;17.54;79.85;101753.78;1297192;22;648;-87
2022/10/29 02:08:13;;;;;;;;;;;;;;;17.57;79.26;101752.66;1297557;22;593;-87
2022/10/29 02:09:03;;;;;;;;;;;;;;;17.59;80.27;101756.97;1297239;22;676;-87
2022/10/29 02:09:54;;;;;;;;;;;;;;;17.58;79.29;101749.84;1296183;22;720;-87
2022/10/29 02:10:44;;;;;;;;;;;;;;;17.59;80.19;101754.25;1296757;22;613;-87
2022/10/29 02:11:34;;;;;;;;;;;;;;;17.56;79.09;101754.50;1297320;22;672;-87
2022/10/29 02:12:25;;;;;;;;;;;;;;;17.49;80.48;101753.28;1296258;22;709;-86
2022/10/29 02:13:15;;;;;;;;;;;;;;;17.53;80.11;101753.91;1290146;23;668;-85
2022/10/29 02:14:06;;;;;;;;;;;;;;;17.49;80.23;101756.00;1291632;23;969;-87
2022/10/29 02:14:56;;;;;;;;;;;;;;;17.53;80.04;101756.59;1293393;22;659;-87
2022/10/29 02:15:47;;;;;;;;;;;;;;;17.50;80.00;101752.31;1297660;22;652;-87
2022/10/29 02:16:37;;;;;;;;;;;;;;;17.52;80.11;101750.38;1296450;22;664;-87
2022/10/29 02:17:28;;;;;;;;;;;;;;;17.52;79.79;101749.50;1289690;23;605;-88
2022/10/29 02:18:18;;;;;;;;;;;;;;;17.53;79.91;101752.06;1289919;23;631;-88
2022/10/29 02:19:08;;;;;;;;;;;;;;;17.54;79.45;101747.53;1296959;22;668;-89
2022/10/29 02:19:59;;;;;;;;;;;;;;;17.54;79.38;101747.53;1297152;22;642;-89
2022/10/29 02:20:49;;;;;;;;;;;;;;;17.52;79.38;101747.66;1296496;22;629;-88
2022/10/29 02:21:41;;;;;;;;;;;;;;;17.54;79.74;101742.16;1296627;22;703;-88
2022/10/29 02:22:31;;;;;;;;;;;;;;;17.57;79.64;101742.75;1297808;22;696;-88
2022/10/29 02:23:22;;;;;;;;;;;;;;;17.55;79.46;101733.94;1297740;22;561;-88
2022/10/29 02:24:12;;;;;;;;;;;;;;;17.54;79.34;101737.63;1297667;22;604;-88
2022/10/29 02:25:03;;;;;;;;;;;;;;;17.55;79.57;101733.94;1297753;22;661;-88
2022/10/29 02:25:53;;;;;;;;;;;;;;;17.54;79.23;101742.16;1297845;22;605;-88
2022/10/29 02:26:43;;;;;;;;;;;;;;;17.54;79.83;101737.63;1297717;22;625;-88
2022/10/29 02:27:34;;;;;;;;;;;;;;;17.52;79.85;101738.72;1297448;22;640;-88
2022/10/29 02:28:24;;;;;;;;;;;;;;;17.50;79.87;101736.16;1297041;22;644;-88
2022/10/29 02:29:15;;;;;;;;;;;;;;;17.47;80.18;101736.38;1297317;22;767;-87
2022/10/29 02:30:05;;;;;;;;;;;;;;;17.47;79.34;101728.31;1298696;22;691;-86
2022/10/29 02:30:56;;;;;;;;;;;;;;;17.51;79.34;101734.31;1298102;22;675;-87
2022/10/29 02:31:46;;;;;;;;;;;;;;;17.51;79.19;101734.31;1297071;22;585;-87
2022/10/29 02:32:36;;;;;;;;;;;;;;;17.52;79.46;101733.34;1297566;22;649;-88
2022/10/29 02:33:27;;;;;;;;;;;;;;;17.50;79.94;101740.69;1299182;22;660;-87
2022/10/29 02:34:17;;;;;;;;;;;;;;;17.52;80.14;101736.88;1300917;22;657;-86
2022/10/29 02:35:08;;;;;;;;;;;;;;;17.53;79.69;101735.91;1300084;22;675;-87
2022/10/29 02:35:58;;;;;;;;;;;;;;;17.51;79.07;101734.31;1292674;23;645;-86
2022/10/29 02:36:49;;;;;;;;;;;;;;;17.53;79.38;101735.03;1291753;23;621;-86
2022/10/29 02:37:39;;;;;;;;;;;;;;;17.49;79.85;101734.44;1300366;22;609;-86
2022/10/29 02:38:29;;;;;;;;;;;;;;;17.50;79.89;101738.84;1298159;22;1911;-87
2022/10/29 02:39:20;;;;;;;;;;;;;;;17.51;79.26;101731.63;1297452;22;692;-87
2022/10/29 02:40:10;;;;;;;;;;;;;;;17.50;78.95;101735.28;1298476;22;857;-85
2022/10/29 02:41:01;;;;;;;;;;;;;;;17.48;79.19;101730.03;1297246;22;957;-90
2022/10/29 02:41:51;;;;;;;;;;;;;;;17.51;79.22;101734.31;1298775;22;606;-87
2022/10/29 02:42:42;;;;;;;;;;;;;;;17.49;79.80;101728.19;1297712;22;609;-87
2022/10/29 02:43:32;;;;;;;;;;;;;;;17.45;79.69;101724.88;1296908;22;649;-87
2022/10/29 02:44:22;;;;;;;;;;;;;;;17.47;80.04;101731.00;1297016;22;554;-86
2022/10/29 02:45:13;;;;;;;;;;;;;;;17.47;79.17;101725.59;1297176;22;636;-87
2022/10/29 02:46:03;;;;;;;;;;;;;;;17.49;79.23;101726.34;1290327;23;953;-88
2022/10/29 02:46:54;;;;;;;;;;;;;;;17.51;79.65;101727.09;1289915;23;611;-88
2022/10/29 02:47:44;;;;;;;;;;;;;;;17.50;80.21;101719.13;1291769;23;629;-88
2022/10/29 02:48:35;;;;;;;;;;;;;;;17.49;79.46;101726.34;1291750;23;648;-87
2022/10/29 02:49:25;;;;;;;;;;;;;;;17.47;79.49;101720.22;1290785;23;661;-87
2022/10/29 02:50:16;;;;;;;;;;;;;;;17.50;79.06;101725.38;1290819;23;691;-87
2022/10/29 02:51:06;;;;;;;;;;;;;;;17.48;79.59;101715.69;1291530;23;605;-87
2022/10/29 02:51:57;;;;;;;;;;;;;;;17.49;79.72;101726.34;1290817;23;636;-86
2022/10/29 02:52:47;;;;;;;;;;;;;;;17.47;79.39;101727.44;1291704;23;613;-89
2022/10/29 02:53:37;;;;;;;;;;;;;;;17.45;79.08;101722.19;1298454;22;651;-87
2022/10/29 02:54:28;;;;;;;;;;;;;;;17.45;79.37;101719.47;1297004;22;641;-88
2022/10/29 02:55:18;;;;;;;;;;;;;;;17.45;80.01;101716.78;1295995;22;641;-89
2022/10/29 02:56:09;;;;;;;;;;;;;;;17.48;79.70;101713.84;1296788;22;648;-90
2022/10/29 02:56:59;;;;;;;;;;;;;;;17.50;79.14;101709.19;1297585;22;688;-89
2022/10/29 02:57:50;;;;;;;;;;;;;;;17.47;79.43;101703.19;1297823;22;668;-88
2022/10/29 02:58:40;;;;;;;;;;;;;;;17.48;79.85;101707.59;1297780;22;1940;-88
2022/10/29 02:59:30;;;;;;;;;;;;;;;17.46;79.90;101696.94;1297710;22;664;-88
2022/10/29 03:00:21;;;;;;;;;;;;;;;17.49;79.51;101701.22;1297627;22;625;-87
2022/10/29 03:01:11;;;;;;;;;;;;;;;17.50;78.80;101706.50;1297644;22;625;-87
2022/10/29 03:02:02;;;;;;;;;;;;;;;17.46;79.31;101713.13;1297900;22;735;-87
2022/10/29 03:02:52;;;;;;;;;;;;;;;17.47;79.40;101708.59;1296225;22;645;-87
2022/10/29 03:03:43;;;;;;;;;;;;;;;17.50;79.64;101709.19;1296856;22;708;-87
2022/10/29 03:04:33;;;;;;;;;;;;;;;17.50;79.89;101713.72;1297155;22;660;-87
2022/10/29 03:05:23;;;;;;;;;;;;;;;17.42;79.74;101706.25;1289944;23;652;-87
2022/10/29 03:06:14;;;;;;;;;;;;;;;17.39;79.11;101706.47;1289920;23;649;-87
2022/10/29 03:07:04;;;;;;;;;;;;;;;17.40;79.61;101705.50;1293151;22;617;-88
2022/10/29 03:07:55;;;;;;;;;;;;;;;17.40;79.09;101697.41;1290683;23;637;-87
2022/10/29 03:08:45;;;;;;;;;;;;;;;17.42;79.59;101700.84;1291627;23;691;-89
2022/10/29 03:09:36;;;;;;;;;;;;;;;17.43;79.88;101696.31;1298384;22;617;-89
2022/10/29 03:10:26;;;;;;;;;;;;;;;17.44;79.71;101698.91;1297668;22;637;-88
2022/10/29 03:11:17;;;;;;;;;;;;;;;17.42;80.06;101700.84;1296683;22;633;-88
2022/10/29 03:12:07;;;;;;;;;;;;;;;17.44;78.90;101700.72;1297590;22;652;-88
2022/10/29 03:12:58;;;;;;;;;;;;;;;17.45;79.33;101705.16;1298775;22;652;-88
2022/10/29 03:13:48;;;;;;;;;;;;;;;17.45;79.09;101700.63;1293650;23;664;-88
2022/10/29 03:14:38;;;;;;;;;;;;;;;17.46;79.33;101705.03;1292801;23;727;-88
2022/10/29 03:15:29;;;;;;;;;;;;;;;17.43;79.20;101699.88;1294001;22;620;-87
2022/10/29 03:16:19;;;;;;;;;;;;;;;17.45;79.04;101700.63;1297926;22;655;-87
2022/10/29 03:17:10;;;;;;;;;;;;;;;17.44;79.51;101701.59;1297989;22;717;-87
2022/10/29 03:18:00;;;;;;;;;;;;;;;17.45;78.97;101699.75;1297452;22;573;-86
2022/10/29 03:18:50;;;;;;;;;;;;;;;17.44;79.42;101704.28;1290372;23;1877;-87
2022/10/29 03:19:41;;;;;;;;;;;;;;;17.47;79.56;101708.59;1290132;23;661;-87
2022/10/29 03:20:31;;;;;;;;;;;;;;;17.43;79.03;101710.66;1292109;23;652;-87
2022/10/29 03:21:22;;;;;;;;;;;;;;;17.48;79.47;101711.16;1286614;23;719;-87
2022/10/29 03:22:12;;;;;;;;;;;;;;;17.50;79.46;101711.88;1291008;23;645;-87
2022/10/29 03:23:03;;;;;;;;;;;;;;;17.46;79.19;101713.13;1291275;23;605;-87
2022/10/29 03:23:53;;;;;;;;;;;;;;;17.46;79.06;101712.25;1291227;23;632;-87
2022/10/29 03:24:43;;;;;;;;;;;;;;;17.39;79.83;101711.88;1291438;22;671;-86
2022/10/29 03:25:34;;;;;;;;;;;;;;;17.41;79.10;101714.44;1291095;23;680;-86
2022/10/29 03:26:24;;;;;;;;;;;;;;;17.41;79.39;101715.31;1292158;23;628;-86
2022/10/29 03:27:15;;;;;;;;;;;;;;;17.41;79.45;101712.63;1299634;22;667;-88
2022/10/29 03:28:05;;;;;;;;;;;;;;;17.41;79.74;101715.31;1297208;22;636;-88
2022/10/29 03:28:56;;;;;;;;;;;;;;;17.41;79.11;101719.84;1290504;23;664;-87
2022/10/29 03:29:46;;;;;;;;;;;;;;;17.41;79.18;101714.44;1290068;23;621;-87
2022/10/29 03:30:36;;;;;;;;;;;;;;;17.43;78.93;101724.13;1291960;23;636;-88
2022/10/29 03:31:27;;;;;;;;;;;;;;;17.41;79.66;101727.91;1292066;23;659;-87
2022/10/29 03:32:17;;;;;;;;;;;;;;;17.41;79.15;101728.78;1291992;22;672;-88
2022/10/29 03:33:08;;;;;;;;;;;;;;;17.42;79.44;101727.81;1292219;23;636;-89
2022/10/29 03:33:58;;;;;;;;;;;;;;;17.42;78.99;101727.81;1298538;22;628;-88
2022/10/29 03:34:48;;;;;;;;;;;;;;;17.43;79.20;101724.13;1297952;22;640;-88
2022/10/29 03:35:39;;;;;;;;;;;;;;;17.44;78.80;101725.84;1297938;22;617;-89
2022/10/29 03:36:29;;;;;;;;;;;;;;;17.43;79.02;101724.13;1297952;22;764;-89
2022/10/29 03:37:20;;;;;;;;;;;;;;;17.45;79.49;101721.31;1297893;22;730;-87
2022/10/29 03:38:10;;;;;;;;;;;;;;;17.45;78.55;101716.78;1297763;22;633;-88
2022/10/29 03:39:01;;;;;;;;;;;;;;;17.44;79.10;101725.00;1297068;22;624;-88
2022/10/29 03:39:51;;;;;;;;;;;;;;;17.42;78.82;101716.16;1296788;22;653;-88
2022/10/29 03:40:41;;;;;;;;;;;;;;;17.40;79.49;101713.59;1297088;22;622;-87
2022/10/29 03:41:32;;;;;;;;;;;;;;;17.41;79.55;101719.84;1297945;22;730;-87
2022/10/29 03:42:22;;;;;;;;;;;;;;;17.42;79.28;101717.03;1297657;22;655;-86
2022/10/29 03:43:13;;;;;;;;;;;;;;;17.44;78.61;101720.47;1297749;22;624;-87
2022/10/29 03:44:03;;;;;;;;;;;;;;;17.44;79.56;101715.06;1297785;22;649;-86
2022/10/29 03:44:54;;;;;;;;;;;;;;;17.45;79.23;101716.78;1297556;22;624;-87
2022/10/29 03:45:44;;;;;;;;;;;;;;;17.44;78.48;101716.91;1290230;23;743;-88
2022/10/29 03:46:34;;;;;;;;;;;;;;;17.44;79.15;101709.69;1290381;23;665;-88
2022/10/29 03:47:25;;;;;;;;;;;;;;;17.40;79.38;101713.59;1299330;22;1086;-87
2022/10/29 03:48:15;;;;;;;;;;;;;;;17.44;78.72;101719.59;1296249;22;637;-88
2022/10/29 03:49:06;;;;;;;;;;;;;;;17.41;79.08;101715.31;1297758;22;680;-87
2022/10/29 03:49:56;;;;;;;;;;;;;;;17.45;78.61;101719.47;1297724;22;648;-86
2022/10/29 03:50:47;;;;;;;;;;;;;;;17.43;78.62;101705.25;1297498;22;609;-86
2022/10/29 03:51:38;;;;;;;;;;;;;;;17.44;78.55;101706.97;1296804;22;609;-87
2022/10/29 03:52:28;;;;;;;;;;;;;;;17.43;78.56;101705.25;1290941;23;633;-87
2022/10/29 03:53:19;;;;;;;;;;;;;;;17.43;79.11;101702.56;1292993;22;778;-87
2022/10/29 03:54:09;;;;;;;;;;;;;;;17.43;79.07;101696.31;1300124;22;637;-86
2022/10/29 03:55:00;;;;;;;;;;;;;;;17.44;78.76;101704.28;1298395;22;632;-87
2022/10/29 03:55:50;;;;;;;;;;;;;;;17.40;79.60;101696.56;1298175;22;597;-88
2022/10/29 03:56:41;;;;;;;;;;;;;;;17.41;79.08;101701.84;1298306;22;680;-88
2022/10/29 03:57:31;;;;;;;;;;;;;;;17.41;79.15;101693.75;1298533;22;668;-89
2022/10/29 03:58:21;;;;;;;;;;;;;;;17.44;79.30;101703.44;1298637;22;711;-88
2022/10/29 03:59:12;;;;;;;;;;;;;;;17.45;78.49;101703.31;1297696;22;656;-87
2022/10/29 04:00:03;;;;;;;;;;;;;;;17.43;78.67;101697.19;1297866;22;613;-87
2022/10/29 04:00:54;;;;;;;;;;;;;;;17.40;79.61;101697.41;1297748;22;566;-88
2022/10/29 04:01:44;;;;;;;;;;;;;;;17.39;79.33;101695.72;1297397;22;672;-88
2022/10/29 04:02:35;;;;;;;;;;;;;;;17.41;79.32;101696.44;1296975;22;633;-88
2022/10/29 04:03:25;;;;;;;;;;;;;;;17.40;79.13;101692.03;1297500;22;617;-88
2022/10/29 04:04:16;;;;;;;;;;;;;;;17.43;79.53;101699.03;1298603;22;696;-89
2022/10/29 04:05:06;;;;;;;;;;;;;;;17.41;78.72;101696.44;1298558;22;668;-88
2022/10/29 04:05:56;;;;;;;;;;;;;;;17.43;78.72;101690.94;1298483;22;664;-90
2022/10/29 04:06:47;;;;;;;;;;;;;;;17.42;79.42;101689.22;1298937;22;636;-91
2022/10/29 04:07:37;;;;;;;;;;;;;;;17.41;79.52;101691.06;1299062;22;593;-90
2022/10/29 04:08:28;;;;;;;;;;;;;;;17.46;79.00;101694.25;1299820;22;782;-90
2022/10/29 04:09:18;;;;;;;;;;;;;;;17.41;78.97;101693.75;1291550;23;610;-90
2022/10/29 04:10:08;;;;;;;;;;;;;;;17.41;79.08;101692.88;1290599;23;656;-90
2022/10/29 04:10:59;;;;;;;;;;;;;;;17.40;78.79;101697.41;1292153;23;660;-90
2022/10/29 04:11:49;;;;;;;;;;;;;;;17.41;78.81;101693.75;1292107;23;644;-90
2022/10/29 04:12:40;;;;;;;;;;;;;;;17.41;78.90;101696.44;1297513;22;660;-90
2022/10/29 04:13:30;;;;;;;;;;;;;;;17.43;79.62;101696.31;1297407;22;656;-89
2022/10/29 04:14:21;;;;;;;;;;;;;;;17.39;79.14;101700.22;1297708;22;676;-89
2022/10/29 04:15:11;;;;;;;;;;;;;;;17.40;79.14;101696.56;1297173;22;613;-89
2022/10/29 04:16:01;;;;;;;;;;;;;;;17.39;79.17;101700.22;1298275;22;653;-89
2022/10/29 04:16:52;;;;;;;;;;;;;;;17.40;78.91;101700.13;1297962;22;739;-89
2022/10/29 04:17:42;;;;;;;;;;;;;;;17.41;79.34;101707.22;1297904;22;613;-89
2022/10/29 04:18:33;;;;;;;;;;;;;;;17.39;79.35;101701.09;1297967;22;1896;-89
2022/10/29 04:19:23;;;;;;;;;;;;;;;17.40;79.40;101696.56;1297831;22;652;-89
2022/10/29 04:20:14;;;;;;;;;;;;;;;17.38;79.26;101702.06;1297575;22;719;-89
2022/10/29 04:21:04;;;;;;;;;;;;;;;17.43;79.23;101701.72;1297074;22;640;-89
2022/10/29 04:21:54;;;;;;;;;;;;;;;17.40;78.96;101705.50;1290542;23;692;-89
2022/10/29 04:22:45;;;;;;;;;;;;;;;17.43;79.21;101705.25;1293525;22;617;-88
2022/10/29 04:23:35;;;;;;;;;;;;;;;17.41;79.31;101701.84;1292106;23;613;-87
2022/10/29 04:24:26;;;;;;;;;;;;;;;17.39;79.07;101701.09;1291789;23;672;-85
2022/10/29 04:25:16;;;;;;;;;;;;;;;17.39;78.44;101703.78;1290798;23;680;-86
2022/10/29 04:26:07;;;;;;;;;;;;;;;17.39;78.58;101701.09;1291817;23;664;-85